sensor_id;sensor_type;location;lat;lon;timestamp;P1;durP1;ratioP1;P2;durP2;ratioP2
42192;SDS011;52467;40.114;18.306;2022-12-10T00:01:15;45.47;;;6.32;;
42192;SDS011;52467;40.114;18.306;2022-12-10T00:03:43;51.47;;;6.85;;
42192;SDS011;52467;40.114;18.306;2022-12-10T00:06:14;61.90;;;6.88;;
42192;SDS011;52467;40.114;18.306;2022-12-10T00:08:43;45.58;;;6.57;;
42192;SDS011;52467;40.114;18.306;2022-12-10T00:11:11;44.72;;;7.13;;
42192;SDS011;52467;40.114;18.306;2022-12-10T00:13:40;54.97;;;7.30;;
42192;SDS011;52467;40.114;18.306;2022-12-10T00:16:08;50.20;;;6.75;;
42192;SDS011;52467;40.114;18.306;2022-12-10T00:18:37;53.08;;;6.43;;
42192;SDS011;52467;40.114;18.306;2022-12-10T00:21:14;39.47;;;6.28;;
42192;SDS011;52467;40.114;18.306;2022-12-10T00:23:44;46.38;;;7.47;;
42192;SDS011;52467;40.114;18.306;2022-12-10T00:26:12;39.33;;;6.72;;
42192;SDS011;52467;40.114;18.306;2022-12-10T00:28:45;36.38;;;6.03;;
42192;SDS011;52467;40.114;18.306;2022-12-10T00:31:21;41.03;;;6.07;;
42192;SDS011;52467;40.114;18.306;2022-12-10T00:33:56;50.25;;;7.97;;
42192;SDS011;52467;40.114;18.306;2022-12-10T00:36:28;43.78;;;7.75;;
42192;SDS011;52467;40.114;18.306;2022-12-10T00:39:00;46.28;;;7.20;;
42192;SDS011;52467;40.114;18.306;2022-12-10T00:41:28;34.50;;;6.20;;
42192;SDS011;52467;40.114;18.306;2022-12-10T00:43:55;53.75;;;7.05;;
42192;SDS011;52467;40.114;18.306;2022-12-10T00:46:23;44.85;;;6.88;;
42192;SDS011;52467;40.114;18.306;2022-12-10T00:48:50;47.30;;;6.33;;
42192;SDS011;52467;40.114;18.306;2022-12-10T00:51:18;57.65;;;8.30;;
42192;SDS011;52467;40.114;18.306;2022-12-10T00:53:48;49.05;;;7.13;;
42192;SDS011;52467;40.114;18.306;2022-12-10T00:56:16;47.72;;;8.68;;
42192;SDS011;52467;40.114;18.306;2022-12-10T00:58:45;49.45;;;8.32;;
42192;SDS011;52467;40.114;18.306;2022-12-10T01:03:54;51.22;;;8.00;;
42192;SDS011;52467;40.114;18.306;2022-12-10T01:06:27;47.17;;;7.88;;
42192;SDS011;52467;40.114;18.306;2022-12-10T01:09:03;51.73;;;8.50;;
42192;SDS011;52467;40.114;18.306;2022-12-10T01:11:39;42.80;;;7.45;;
42192;SDS011;52467;40.114;18.306;2022-12-10T01:14:08;43.42;;;8.48;;
42192;SDS011;52467;40.114;18.306;2022-12-10T01:16:38;47.23;;;8.87;;
42192;SDS011;52467;40.114;18.306;2022-12-10T01:19:05;48.40;;;7.70;;
42192;SDS011;52467;40.114;18.306;2022-12-10T01:21:34;47.72;;;8.80;;
42192;SDS011;52467;40.114;18.306;2022-12-10T01:24:02;49.33;;;7.65;;
42192;SDS011;52467;40.114;18.306;2022-12-10T01:26:31;40.90;;;7.07;;
42192;SDS011;52467;40.114;18.306;2022-12-10T01:29:00;38.28;;;7.80;;
42192;SDS011;52467;40.114;18.306;2022-12-10T01:31:30;47.38;;;7.55;;
42192;SDS011;52467;40.114;18.306;2022-12-10T01:34:05;58.17;;;7.90;;
42192;SDS011;52467;40.114;18.306;2022-12-10T01:36:35;46.63;;;6.93;;
42192;SDS011;52467;40.114;18.306;2022-12-10T01:39:04;50.08;;;7.47;;
42192;SDS011;52467;40.114;18.306;2022-12-10T01:41:34;46.28;;;6.97;;
42192;SDS011;52467;40.114;18.306;2022-12-10T01:46:39;42.65;;;6.93;;
42192;SDS011;52467;40.114;18.306;2022-12-10T01:49:31;46.60;;;6.63;;
42192;SDS011;52467;40.114;18.306;2022-12-10T01:52:00;39.78;;;7.05;;
42192;SDS011;52467;40.114;18.306;2022-12-10T01:54:32;42.07;;;7.30;;
42192;SDS011;52467;40.114;18.306;2022-12-10T01:57:45;39.17;;;6.68;;
42192;SDS011;52467;40.114;18.306;2022-12-10T01:59:55;50.53;;;7.18;;
42192;SDS011;52467;40.114;18.306;2022-12-10T02:08:14;45.70;;;6.47;;
42192;SDS011;52467;40.114;18.306;2022-12-10T02:14:03;41.00;;;6.45;;
42192;SDS011;52467;40.114;18.306;2022-12-10T02:17:02;45.35;;;6.97;;
42192;SDS011;52467;40.114;18.306;2022-12-10T02:22:39;42.85;;;6.50;;
42192;SDS011;52467;40.114;18.306;2022-12-10T02:25:15;38.47;;;6.47;;
42192;SDS011;52467;40.114;18.306;2022-12-10T02:30:37;43.00;;;6.63;;
42192;SDS011;52467;40.114;18.306;2022-12-10T02:33:06;50.33;;;6.55;;
42192;SDS011;52467;40.114;18.306;2022-12-10T02:35:34;41.05;;;7.15;;
42192;SDS011;52467;40.114;18.306;2022-12-10T02:38:07;33.55;;;6.00;;
42192;SDS011;52467;40.114;18.306;2022-12-10T02:40:49;40.40;;;6.53;;
42192;SDS011;52467;40.114;18.306;2022-12-10T02:43:20;44.20;;;6.65;;
42192;SDS011;52467;40.114;18.306;2022-12-10T02:45:49;43.33;;;6.68;;
42192;SDS011;52467;40.114;18.306;2022-12-10T02:48:18;34.78;;;6.05;;
42192;SDS011;52467;40.114;18.306;2022-12-10T02:50:46;37.30;;;6.53;;
42192;SDS011;52467;40.114;18.306;2022-12-10T02:53:13;41.53;;;6.28;;
42192;SDS011;52467;40.114;18.306;2022-12-10T02:55:45;46.87;;;6.60;;
42192;SDS011;52467;40.114;18.306;2022-12-10T03:04:45;47.45;;;6.72;;
42192;SDS011;52467;40.114;18.306;2022-12-10T03:07:15;35.78;;;6.13;;
42192;SDS011;52467;40.114;18.306;2022-12-10T03:09:52;38.13;;;6.40;;
42192;SDS011;52467;40.114;18.306;2022-12-10T03:12:27;39.30;;;7.07;;
42192;SDS011;52467;40.114;18.306;2022-12-10T03:15:03;39.03;;;6.07;;
42192;SDS011;52467;40.114;18.306;2022-12-10T03:17:33;39.13;;;6.20;;
42192;SDS011;52467;40.114;18.306;2022-12-10T03:20:02;31.45;;;5.95;;
42192;SDS011;52467;40.114;18.306;2022-12-10T03:22:30;36.80;;;6.45;;
42192;SDS011;52467;40.114;18.306;2022-12-10T03:24:58;38.28;;;6.47;;
42192;SDS011;52467;40.114;18.306;2022-12-10T03:27:27;40.42;;;6.20;;
42192;SDS011;52467;40.114;18.306;2022-12-10T03:29:56;42.38;;;6.75;;
42192;SDS011;52467;40.114;18.306;2022-12-10T03:32:25;38.83;;;5.80;;
42192;SDS011;52467;40.114;18.306;2022-12-10T03:34:54;33.58;;;5.80;;
42192;SDS011;52467;40.114;18.306;2022-12-10T03:37:24;31.20;;;5.95;;
42192;SDS011;52467;40.114;18.306;2022-12-10T03:39:52;38.38;;;6.05;;
42192;SDS011;52467;40.114;18.306;2022-12-10T03:42:20;39.20;;;6.28;;
42192;SDS011;52467;40.114;18.306;2022-12-10T03:44:49;37.28;;;5.55;;
42192;SDS011;52467;40.114;18.306;2022-12-10T03:47:18;32.78;;;5.65;;
42192;SDS011;52467;40.114;18.306;2022-12-10T03:49:46;41.58;;;7.15;;
42192;SDS011;52467;40.114;18.306;2022-12-10T03:52:13;46.63;;;6.30;;
42192;SDS011;52467;40.114;18.306;2022-12-10T03:54:41;41.20;;;5.90;;
42192;SDS011;52467;40.114;18.306;2022-12-10T03:57:08;42.00;;;6.38;;
42192;SDS011;52467;40.114;18.306;2022-12-10T03:59:35;35.92;;;5.88;;
42192;SDS011;52467;40.114;18.306;2022-12-10T04:02:03;41.77;;;6.73;;
42192;SDS011;52467;40.114;18.306;2022-12-10T04:04:30;32.38;;;6.28;;
42192;SDS011;52467;40.114;18.306;2022-12-10T04:06:58;39.47;;;5.75;;
42192;SDS011;52467;40.114;18.306;2022-12-10T04:09:25;37.00;;;5.87;;
42192;SDS011;52467;40.114;18.306;2022-12-10T04:11:58;38.40;;;6.35;;
42192;SDS011;52467;40.114;18.306;2022-12-10T04:14:26;38.42;;;5.28;;
42192;SDS011;52467;40.114;18.306;2022-12-10T04:17:20;34.80;;;6.57;;
42192;SDS011;52467;40.114;18.306;2022-12-10T04:19:47;32.25;;;6.13;;
42192;SDS011;52467;40.114;18.306;2022-12-10T04:22:14;47.08;;;6.63;;
42192;SDS011;52467;40.114;18.306;2022-12-10T04:25:00;42.40;;;5.32;;
42192;SDS011;52467;40.114;18.306;2022-12-10T04:27:46;38.42;;;6.65;;
42192;SDS011;52467;40.114;18.306;2022-12-10T04:30:14;32.33;;;5.47;;
42192;SDS011;52467;40.114;18.306;2022-12-10T04:32:41;43.33;;;6.33;;
42192;SDS011;52467;40.114;18.306;2022-12-10T04:35:09;41.65;;;6.03;;
42192;SDS011;52467;40.114;18.306;2022-12-10T04:37:36;42.55;;;6.45;;
42192;SDS011;52467;40.114;18.306;2022-12-10T04:40:05;32.25;;;6.07;;
42192;SDS011;52467;40.114;18.306;2022-12-10T04:42:32;36.70;;;5.55;;
42192;SDS011;52467;40.114;18.306;2022-12-10T04:45:00;41.53;;;5.97;;
42192;SDS011;52467;40.114;18.306;2022-12-10T04:47:27;40.78;;;6.32;;
42192;SDS011;52467;40.114;18.306;2022-12-10T04:49:54;28.42;;;5.50;;
42192;SDS011;52467;40.114;18.306;2022-12-10T04:52:22;39.30;;;5.57;;
42192;SDS011;52467;40.114;18.306;2022-12-10T04:54:49;27.52;;;5.53;;
42192;SDS011;52467;40.114;18.306;2022-12-10T04:57:16;41.40;;;5.88;;
42192;SDS011;52467;40.114;18.306;2022-12-10T04:59:44;31.33;;;5.87;;
42192;SDS011;52467;40.114;18.306;2022-12-10T05:02:11;41.75;;;5.75;;
42192;SDS011;52467;40.114;18.306;2022-12-10T05:04:38;40.22;;;6.03;;
42192;SDS011;52467;40.114;18.306;2022-12-10T05:07:06;28.25;;;5.97;;
42192;SDS011;52467;40.114;18.306;2022-12-10T05:09:33;29.60;;;5.18;;
42192;SDS011;52467;40.114;18.306;2022-12-10T05:12:00;40.63;;;5.87;;
42192;SDS011;52467;40.114;18.306;2022-12-10T05:14:28;35.72;;;5.95;;
42192;SDS011;52467;40.114;18.306;2022-12-10T05:17:00;42.88;;;6.13;;
42192;SDS011;52467;40.114;18.306;2022-12-10T05:19:27;38.90;;;5.50;;
42192;SDS011;52467;40.114;18.306;2022-12-10T05:21:55;33.10;;;5.00;;
42192;SDS011;52467;40.114;18.306;2022-12-10T05:24:40;33.75;;;5.45;;
42192;SDS011;52467;40.114;18.306;2022-12-10T05:27:08;33.65;;;5.80;;
42192;SDS011;52467;40.114;18.306;2022-12-10T05:29:35;38.80;;;6.65;;
42192;SDS011;52467;40.114;18.306;2022-12-10T05:32:03;42.50;;;6.80;;
42192;SDS011;52467;40.114;18.306;2022-12-10T05:34:31;42.65;;;6.32;;
42192;SDS011;52467;40.114;18.306;2022-12-10T05:36:58;39.55;;;5.22;;
42192;SDS011;52467;40.114;18.306;2022-12-10T05:39:25;41.30;;;6.05;;
42192;SDS011;52467;40.114;18.306;2022-12-10T05:41:53;32.37;;;5.67;;
42192;SDS011;52467;40.114;18.306;2022-12-10T05:44:21;36.65;;;5.32;;
42192;SDS011;52467;40.114;18.306;2022-12-10T05:46:48;46.08;;;6.40;;
42192;SDS011;52467;40.114;18.306;2022-12-10T05:49:16;32.35;;;5.32;;
42192;SDS011;52467;40.114;18.306;2022-12-10T05:51:43;37.17;;;5.93;;
42192;SDS011;52467;40.114;18.306;2022-12-10T05:54:11;42.75;;;6.45;;
42192;SDS011;52467;40.114;18.306;2022-12-10T05:56:38;35.13;;;5.50;;
42192;SDS011;52467;40.114;18.306;2022-12-10T05:59:06;39.75;;;5.72;;
42192;SDS011;52467;40.114;18.306;2022-12-10T06:01:36;43.88;;;6.28;;
42192;SDS011;52467;40.114;18.306;2022-12-10T06:04:04;40.75;;;6.75;;
42192;SDS011;52467;40.114;18.306;2022-12-10T06:06:33;44.65;;;6.93;;
42192;SDS011;52467;40.114;18.306;2022-12-10T06:09:03;36.80;;;5.70;;
42192;SDS011;52467;40.114;18.306;2022-12-10T06:11:32;44.63;;;5.88;;
42192;SDS011;52467;40.114;18.306;2022-12-10T06:14:01;39.33;;;5.80;;
42192;SDS011;52467;40.114;18.306;2022-12-10T06:16:29;32.78;;;5.13;;
42192;SDS011;52467;40.114;18.306;2022-12-10T06:18:56;43.92;;;5.40;;
42192;SDS011;52467;40.114;18.306;2022-12-10T06:21:23;42.58;;;6.00;;
42192;SDS011;52467;40.114;18.306;2022-12-10T06:23:51;41.45;;;5.85;;
42192;SDS011;52467;40.114;18.306;2022-12-10T06:26:22;46.20;;;5.80;;
42192;SDS011;52467;40.114;18.306;2022-12-10T06:28:51;39.85;;;5.68;;
42192;SDS011;52467;40.114;18.306;2022-12-10T06:31:19;36.33;;;4.72;;
42192;SDS011;52467;40.114;18.306;2022-12-10T06:33:47;40.50;;;6.30;;
42192;SDS011;52467;40.114;18.306;2022-12-10T06:36:15;29.80;;;4.83;;
42192;SDS011;52467;40.114;18.306;2022-12-10T06:38:43;43.65;;;5.80;;
42192;SDS011;52467;40.114;18.306;2022-12-10T06:41:11;39.95;;;5.53;;
42192;SDS011;52467;40.114;18.306;2022-12-10T06:43:40;34.33;;;5.47;;
42192;SDS011;52467;40.114;18.306;2022-12-10T06:46:08;34.33;;;5.10;;
42192;SDS011;52467;40.114;18.306;2022-12-10T06:48:36;41.35;;;5.22;;
42192;SDS011;52467;40.114;18.306;2022-12-10T06:51:04;35.15;;;5.78;;
42192;SDS011;52467;40.114;18.306;2022-12-10T06:53:32;33.33;;;5.45;;
42192;SDS011;52467;40.114;18.306;2022-12-10T06:56:01;39.47;;;5.75;;
42192;SDS011;52467;40.114;18.306;2022-12-10T06:58:30;35.53;;;5.13;;
42192;SDS011;52467;40.114;18.306;2022-12-10T07:01:09;36.17;;;6.50;;
42192;SDS011;52467;40.114;18.306;2022-12-10T07:03:41;35.80;;;5.63;;
42192;SDS011;52467;40.114;18.306;2022-12-10T07:06:09;42.35;;;6.13;;
42192;SDS011;52467;40.114;18.306;2022-12-10T07:08:37;39.50;;;5.75;;
42192;SDS011;52467;40.114;18.306;2022-12-10T07:11:05;39.55;;;5.63;;
42192;SDS011;52467;40.114;18.306;2022-12-10T07:13:35;34.97;;;5.47;;
42192;SDS011;52467;40.114;18.306;2022-12-10T07:16:03;37.07;;;6.10;;
42192;SDS011;52467;40.114;18.306;2022-12-10T07:18:38;40.63;;;6.33;;
42192;SDS011;52467;40.114;18.306;2022-12-10T07:21:16;33.25;;;5.97;;
42192;SDS011;52467;40.114;18.306;2022-12-10T07:23:51;35.42;;;5.18;;
42192;SDS011;52467;40.114;18.306;2022-12-10T07:26:20;43.58;;;6.10;;
42192;SDS011;52467;40.114;18.306;2022-12-10T07:28:48;40.13;;;6.22;;
42192;SDS011;52467;40.114;18.306;2022-12-10T07:31:18;43.63;;;5.88;;
42192;SDS011;52467;40.114;18.306;2022-12-10T07:33:46;40.75;;;6.57;;
42192;SDS011;52467;40.114;18.306;2022-12-10T07:36:14;39.03;;;7.03;;
42192;SDS011;52467;40.114;18.306;2022-12-10T07:38:41;39.67;;;6.45;;
42192;SDS011;52467;40.114;18.306;2022-12-10T07:41:10;43.63;;;6.53;;
42192;SDS011;52467;40.114;18.306;2022-12-10T07:43:41;38.13;;;5.90;;
42192;SDS011;52467;40.114;18.306;2022-12-10T07:46:10;47.10;;;6.37;;
42192;SDS011;52467;40.114;18.306;2022-12-10T07:48:40;33.00;;;5.85;;
42192;SDS011;52467;40.114;18.306;2022-12-10T07:51:08;36.50;;;5.95;;
42192;SDS011;52467;40.114;18.306;2022-12-10T07:53:35;37.75;;;6.22;;
42192;SDS011;52467;40.114;18.306;2022-12-10T07:56:03;42.42;;;6.57;;
42192;SDS011;52467;40.114;18.306;2022-12-10T07:58:31;31.37;;;4.97;;
42192;SDS011;52467;40.114;18.306;2022-12-10T08:00:58;38.15;;;6.10;;
42192;SDS011;52467;40.114;18.306;2022-12-10T08:03:26;36.15;;;5.47;;
42192;SDS011;52467;40.114;18.306;2022-12-10T08:06:07;39.05;;;5.57;;
42192;SDS011;52467;40.114;18.306;2022-12-10T08:08:36;37.55;;;5.70;;
42192;SDS011;52467;40.114;18.306;2022-12-10T08:11:05;35.42;;;5.57;;
42192;SDS011;52467;40.114;18.306;2022-12-10T08:13:33;35.10;;;5.93;;
42192;SDS011;52467;40.114;18.306;2022-12-10T08:16:05;35.10;;;5.13;;
42192;SDS011;52467;40.114;18.306;2022-12-10T08:18:39;35.67;;;5.35;;
42192;SDS011;52467;40.114;18.306;2022-12-10T08:21:08;31.75;;;5.25;;
42192;SDS011;52467;40.114;18.306;2022-12-10T08:23:40;40.58;;;5.05;;
42192;SDS011;52467;40.114;18.306;2022-12-10T08:26:09;32.35;;;5.75;;
42192;SDS011;52467;40.114;18.306;2022-12-10T08:28:39;36.13;;;6.55;;
42192;SDS011;52467;40.114;18.306;2022-12-10T08:31:07;35.17;;;5.72;;
42192;SDS011;52467;40.114;18.306;2022-12-10T08:33:36;53.15;;;6.63;;
42192;SDS011;52467;40.114;18.306;2022-12-10T08:36:04;40.05;;;6.28;;
42192;SDS011;52467;40.114;18.306;2022-12-10T08:38:33;51.78;;;6.78;;
42192;SDS011;52467;40.114;18.306;2022-12-10T08:41:05;42.08;;;5.82;;
42192;SDS011;52467;40.114;18.306;2022-12-10T08:43:34;48.13;;;5.85;;
42192;SDS011;52467;40.114;18.306;2022-12-10T08:46:01;42.67;;;5.95;;
42192;SDS011;52467;40.114;18.306;2022-12-10T08:48:29;44.10;;;5.65;;
42192;SDS011;52467;40.114;18.306;2022-12-10T08:50:56;39.35;;;5.95;;
42192;SDS011;52467;40.114;18.306;2022-12-10T08:53:24;40.70;;;5.65;;
42192;SDS011;52467;40.114;18.306;2022-12-10T08:55:51;34.38;;;6.25;;
42192;SDS011;52467;40.114;18.306;2022-12-10T08:58:19;40.40;;;6.25;;
42192;SDS011;52467;40.114;18.306;2022-12-10T09:00:47;40.63;;;5.50;;
42192;SDS011;52467;40.114;18.306;2022-12-10T09:03:15;33.78;;;5.60;;
42192;SDS011;52467;40.114;18.306;2022-12-10T09:05:43;33.17;;;5.57;;
42192;SDS011;52467;40.114;18.306;2022-12-10T09:08:10;35.25;;;4.90;;
42192;SDS011;52467;40.114;18.306;2022-12-10T09:10:38;38.30;;;4.93;;
42192;SDS011;52467;40.114;18.306;2022-12-10T09:13:06;32.47;;;5.45;;
42192;SDS011;52467;40.114;18.306;2022-12-10T09:15:34;27.80;;;5.23;;
42192;SDS011;52467;40.114;18.306;2022-12-10T09:18:02;27.60;;;4.88;;
42192;SDS011;52467;40.114;18.306;2022-12-10T09:20:30;30.17;;;4.43;;
42192;SDS011;52467;40.114;18.306;2022-12-10T09:22:57;29.80;;;4.75;;
42192;SDS011;52467;40.114;18.306;2022-12-10T09:25:26;32.72;;;5.30;;
42192;SDS011;52467;40.114;18.306;2022-12-10T09:27:53;34.10;;;5.65;;
42192;SDS011;52467;40.114;18.306;2022-12-10T09:30:21;32.23;;;5.07;;
42192;SDS011;52467;40.114;18.306;2022-12-10T09:33:07;31.02;;;5.30;;
42192;SDS011;52467;40.114;18.306;2022-12-10T09:35:34;25.30;;;4.55;;
42192;SDS011;52467;40.114;18.306;2022-12-10T09:38:05;32.55;;;5.55;;
42192;SDS011;52467;40.114;18.306;2022-12-10T09:40:35;32.58;;;5.18;;
42192;SDS011;52467;40.114;18.306;2022-12-10T09:48:34;32.15;;;4.88;;
42192;SDS011;52467;40.114;18.306;2022-12-10T09:51:27;26.65;;;4.82;;
42192;SDS011;52467;40.114;18.306;2022-12-10T09:54:01;27.73;;;5.63;;
42192;SDS011;52467;40.114;18.306;2022-12-10T09:56:34;25.67;;;5.03;;
42192;SDS011;52467;40.114;18.306;2022-12-10T09:59:12;28.97;;;5.50;;
42192;SDS011;52467;40.114;18.306;2022-12-10T10:01:44;31.30;;;4.95;;
42192;SDS011;52467;40.114;18.306;2022-12-10T10:04:12;28.30;;;5.00;;
42192;SDS011;52467;40.114;18.306;2022-12-10T10:06:40;28.53;;;5.37;;
42192;SDS011;52467;40.114;18.306;2022-12-10T10:09:07;34.38;;;5.25;;
42192;SDS011;52467;40.114;18.306;2022-12-10T10:11:38;35.70;;;5.70;;
42192;SDS011;52467;40.114;18.306;2022-12-10T10:14:10;29.00;;;4.60;;
42192;SDS011;52467;40.114;18.306;2022-12-10T10:19:15;35.85;;;5.90;;
42192;SDS011;52467;40.114;18.306;2022-12-10T10:21:44;32.35;;;5.40;;
42192;SDS011;52467;40.114;18.306;2022-12-10T10:24:14;27.20;;;4.90;;
42192;SDS011;52467;40.114;18.306;2022-12-10T10:26:43;28.20;;;5.07;;
42192;SDS011;52467;40.114;18.306;2022-12-10T10:29:13;24.37;;;4.67;;
42192;SDS011;52467;40.114;18.306;2022-12-10T10:31:44;30.92;;;5.22;;
42192;SDS011;52467;40.114;18.306;2022-12-10T10:34:41;33.33;;;5.25;;
42192;SDS011;52467;40.114;18.306;2022-12-10T10:37:20;28.02;;;4.60;;
42192;SDS011;52467;40.114;18.306;2022-12-10T10:39:58;32.17;;;5.50;;
42192;SDS011;52467;40.114;18.306;2022-12-10T10:42:28;32.83;;;4.90;;
42192;SDS011;52467;40.114;18.306;2022-12-10T10:45:06;32.95;;;5.40;;
42192;SDS011;52467;40.114;18.306;2022-12-10T10:50:46;28.45;;;5.03;;
42192;SDS011;52467;40.114;18.306;2022-12-10T10:53:26;35.70;;;5.72;;
42192;SDS011;52467;40.114;18.306;2022-12-10T10:55:58;34.83;;;5.50;;
42192;SDS011;52467;40.114;18.306;2022-12-10T10:58:30;35.80;;;4.80;;
42192;SDS011;52467;40.114;18.306;2022-12-10T11:01:02;38.15;;;5.53;;
42192;SDS011;52467;40.114;18.306;2022-12-10T11:03:32;36.78;;;4.95;;
42192;SDS011;52467;40.114;18.306;2022-12-10T11:06:02;27.27;;;4.82;;
42192;SDS011;52467;40.114;18.306;2022-12-10T11:08:33;31.58;;;5.05;;
42192;SDS011;52467;40.114;18.306;2022-12-10T11:11:03;34.65;;;5.38;;
42192;SDS011;52467;40.114;18.306;2022-12-10T11:13:37;26.08;;;4.95;;
42192;SDS011;52467;40.114;18.306;2022-12-10T11:18:43;36.83;;;5.43;;
42192;SDS011;52467;40.114;18.306;2022-12-10T11:21:23;32.47;;;5.57;;
42192;SDS011;52467;40.114;18.306;2022-12-10T11:23:55;28.60;;;5.30;;
42192;SDS011;52467;40.114;18.306;2022-12-10T11:29:20;30.63;;;5.28;;
42192;SDS011;52467;40.114;18.306;2022-12-10T11:37:57;29.85;;;5.32;;
42192;SDS011;52467;40.114;18.306;2022-12-10T11:48:29;40.22;;;6.22;;
42192;SDS011;52467;40.114;18.306;2022-12-10T11:56:34;30.48;;;5.88;;
42192;SDS011;52467;40.114;18.306;2022-12-10T12:02:46;37.43;;;6.47;;
42192;SDS011;52467;40.114;18.306;2022-12-10T12:13:30;36.65;;;5.97;;
42192;SDS011;52467;40.114;18.306;2022-12-10T12:16:11;31.02;;;5.80;;
42192;SDS011;52467;40.114;18.306;2022-12-10T12:18:48;32.40;;;5.72;;
42192;SDS011;52467;40.114;18.306;2022-12-10T12:21:19;33.40;;;5.50;;
42192;SDS011;52467;40.114;18.306;2022-12-10T12:23:54;35.65;;;6.03;;
42192;SDS011;52467;40.114;18.306;2022-12-10T12:26:39;36.50;;;6.28;;
42192;SDS011;52467;40.114;18.306;2022-12-10T12:29:18;36.88;;;5.57;;
42192;SDS011;52467;40.114;18.306;2022-12-10T12:32:21;31.23;;;5.30;;
42192;SDS011;52467;40.114;18.306;2022-12-10T12:37:37;33.90;;;6.10;;
42192;SDS011;52467;40.114;18.306;2022-12-10T12:43:09;34.75;;;6.07;;
42192;SDS011;52467;40.114;18.306;2022-12-10T12:45:45;31.00;;;5.30;;
42192;SDS011;52467;40.114;18.306;2022-12-10T12:48:26;30.85;;;5.65;;
42192;SDS011;52467;40.114;18.306;2022-12-10T12:53:53;30.73;;;5.40;;
42192;SDS011;52467;40.114;18.306;2022-12-10T12:56:37;33.78;;;5.40;;
42192;SDS011;52467;40.114;18.306;2022-12-10T13:05:40;28.30;;;4.80;;
42192;SDS011;52467;40.114;18.306;2022-12-10T13:16:24;30.70;;;6.18;;
42192;SDS011;52467;40.114;18.306;2022-12-10T13:33:38;27.45;;;5.55;;
42192;SDS011;52467;40.114;18.306;2022-12-10T13:35:44;32.65;;;5.60;;
42192;SDS011;52467;40.114;18.306;2022-12-10T13:38:19;26.70;;;5.13;;
42192;SDS011;52467;40.114;18.306;2022-12-10T13:41:05;27.23;;;5.60;;
42192;SDS011;52467;40.114;18.306;2022-12-10T13:43:56;33.75;;;6.10;;
42192;SDS011;52467;40.114;18.306;2022-12-10T13:46:51;26.80;;;5.72;;
42192;SDS011;52467;40.114;18.306;2022-12-10T13:49:34;34.50;;;6.03;;
42192;SDS011;52467;40.114;18.306;2022-12-10T13:55:21;32.67;;;6.05;;
42192;SDS011;52467;40.114;18.306;2022-12-10T13:58:15;34.33;;;6.93;;
42192;SDS011;52467;40.114;18.306;2022-12-10T14:06:52;38.67;;;6.30;;
42192;SDS011;52467;40.114;18.306;2022-12-10T14:09:23;31.35;;;5.65;;
42192;SDS011;52467;40.114;18.306;2022-12-10T14:11:54;33.30;;;6.18;;
42192;SDS011;52467;40.114;18.306;2022-12-10T14:14:38;35.72;;;6.72;;
42192;SDS011;52467;40.114;18.306;2022-12-10T14:17:15;33.95;;;6.65;;
42192;SDS011;52467;40.114;18.306;2022-12-10T14:19:45;32.53;;;5.87;;
42192;SDS011;52467;40.114;18.306;2022-12-10T14:22:15;32.55;;;6.60;;
42192;SDS011;52467;40.114;18.306;2022-12-10T14:24:45;35.05;;;6.45;;
42192;SDS011;52467;40.114;18.306;2022-12-10T14:27:17;35.17;;;5.70;;
42192;SDS011;52467;40.114;18.306;2022-12-10T14:29:46;33.42;;;6.57;;
42192;SDS011;52467;40.114;18.306;2022-12-10T14:32:16;33.40;;;6.25;;
42192;SDS011;52467;40.114;18.306;2022-12-10T14:35:05;31.95;;;6.40;;
42192;SDS011;52467;40.114;18.306;2022-12-10T14:37:35;30.70;;;5.25;;
42192;SDS011;52467;40.114;18.306;2022-12-10T14:40:04;35.10;;;6.50;;
42192;SDS011;52467;40.114;18.306;2022-12-10T14:42:33;31.58;;;5.57;;
42192;SDS011;52467;40.114;18.306;2022-12-10T14:45:05;33.13;;;7.23;;
42192;SDS011;52467;40.114;18.306;2022-12-10T14:47:37;33.37;;;7.33;;
42192;SDS011;52467;40.114;18.306;2022-12-10T14:50:12;32.47;;;6.90;;
42192;SDS011;52467;40.114;18.306;2022-12-10T14:52:45;42.28;;;7.43;;
42192;SDS011;52467;40.114;18.306;2022-12-10T14:55:17;33.93;;;7.63;;
42192;SDS011;52467;40.114;18.306;2022-12-10T14:58:00;36.72;;;6.00;;
42192;SDS011;52467;40.114;18.306;2022-12-10T15:00:29;25.13;;;6.07;;
42192;SDS011;52467;40.114;18.306;2022-12-10T15:02:58;28.73;;;6.10;;
42192;SDS011;52467;40.114;18.306;2022-12-10T15:05:27;28.20;;;7.03;;
42192;SDS011;52467;40.114;18.306;2022-12-10T15:07:57;30.98;;;6.13;;
42192;SDS011;52467;40.114;18.306;2022-12-10T15:10:37;34.67;;;6.15;;
42192;SDS011;52467;40.114;18.306;2022-12-10T15:13:13;29.00;;;6.45;;
42192;SDS011;52467;40.114;18.306;2022-12-10T15:16:01;40.85;;;7.00;;
42192;SDS011;52467;40.114;18.306;2022-12-10T15:18:33;32.13;;;6.03;;
42192;SDS011;52467;40.114;18.306;2022-12-10T15:21:08;38.70;;;6.93;;
42192;SDS011;52467;40.114;18.306;2022-12-10T15:23:44;27.48;;;5.60;;
42192;SDS011;52467;40.114;18.306;2022-12-10T15:29:01;29.85;;;6.00;;
42192;SDS011;52467;40.114;18.306;2022-12-10T15:31:57;26.92;;;5.75;;
42192;SDS011;52467;40.114;18.306;2022-12-10T15:34:27;34.50;;;6.30;;
42192;SDS011;52467;40.114;18.306;2022-12-10T15:36:58;30.67;;;6.03;;
42192;SDS011;52467;40.114;18.306;2022-12-10T15:39:34;29.38;;;5.88;;
42192;SDS011;52467;40.114;18.306;2022-12-10T15:45:25;34.65;;;6.13;;
42192;SDS011;52467;40.114;18.306;2022-12-10T15:47:57;30.27;;;5.90;;
42192;SDS011;52467;40.114;18.306;2022-12-10T15:50:25;28.88;;;5.70;;
42192;SDS011;52467;40.114;18.306;2022-12-10T15:52:53;28.90;;;5.10;;
42192;SDS011;52467;40.114;18.306;2022-12-10T15:55:20;22.80;;;5.25;;
42192;SDS011;52467;40.114;18.306;2022-12-10T15:57:49;25.95;;;5.40;;
42192;SDS011;52467;40.114;18.306;2022-12-10T16:00:24;25.05;;;5.85;;
42192;SDS011;52467;40.114;18.306;2022-12-10T16:05:30;25.42;;;5.00;;
42192;SDS011;52467;40.114;18.306;2022-12-10T16:08:08;26.30;;;4.95;;
42192;SDS011;52467;40.114;18.306;2022-12-10T16:10:40;21.83;;;5.40;;
42192;SDS011;52467;40.114;18.306;2022-12-10T16:13:13;19.98;;;4.40;;
42192;SDS011;52467;40.114;18.306;2022-12-10T16:15:45;31.80;;;4.83;;
42192;SDS011;52467;40.114;18.306;2022-12-10T16:18:24;28.77;;;4.30;;
42192;SDS011;52467;40.114;18.306;2022-12-10T16:20:54;21.23;;;4.17;;
42192;SDS011;52467;40.114;18.306;2022-12-10T16:23:22;28.63;;;4.00;;
42192;SDS011;52467;40.114;18.306;2022-12-10T16:25:49;27.17;;;4.63;;
42192;SDS011;52467;40.114;18.306;2022-12-10T16:28:18;24.27;;;4.63;;
42192;SDS011;52467;40.114;18.306;2022-12-10T16:31:10;26.10;;;5.53;;
42192;SDS011;52467;40.114;18.306;2022-12-10T16:33:39;25.73;;;4.38;;
42192;SDS011;52467;40.114;18.306;2022-12-10T16:36:06;27.98;;;4.78;;
42192;SDS011;52467;40.114;18.306;2022-12-10T16:38:34;25.95;;;5.15;;
42192;SDS011;52467;40.114;18.306;2022-12-10T16:41:01;32.00;;;5.00;;
42192;SDS011;52467;40.114;18.306;2022-12-10T16:43:29;28.85;;;6.03;;
42192;SDS011;52467;40.114;18.306;2022-12-10T16:45:59;25.30;;;4.93;;
42192;SDS011;52467;40.114;18.306;2022-12-10T16:48:26;33.42;;;6.78;;
42192;SDS011;52467;40.114;18.306;2022-12-10T16:50:54;38.25;;;5.78;;
42192;SDS011;52467;40.114;18.306;2022-12-10T16:53:28;42.88;;;6.82;;
42192;SDS011;52467;40.114;18.306;2022-12-10T16:55:55;39.38;;;6.65;;